Aviation Digital Data Service (ADDS)

Output produced by TAFs form (2039 UTC 27 April 2017)
found at http://www.aviationweather.gov/adds/tafs/
 
Forecast for: RODN (KADENA (USAFB-NA, JP)
Text: TAF RODN 271700Z 2717/2823 02009KT 9999 SCT020 BKN040 QNH2985INS
Forecast period: 1700 UTC 27 April 2017 to 2300 UTC 28 April 2017
Forecast type: FROM: standard forecast or significant change
Winds: from the NNE (20 degrees) at 10 MPH (9 knots; 4.7 m/s)
Visibility: 6 or more miles (10+ km)
Ceiling: 4000 feet AGL
Clouds: scattered clouds at 2000 feet AGL
broken clouds at 4000 feet AGL
Weather: no significant weather forecast for this period
Text: TEMPO 2717/2724 8000 -SHRA BKN020 TX23/2804Z TN17/2717Z
Forecast period: 1700 UTC 27 April 2017 to 0000 UTC 28 April 2017
Forecast type: TEMPORARY: The following changes expected for less than half the time period
Visibility: 5 miles (8 km)
Ceiling: 2000 feet AGL
Clouds: broken clouds at 2000 feet AGL
Weather: -SHRA  (light rain showers)

Forecast for: ROTM (FUTENMA(US-MCAS), JP)
Text: TAF ROTM 2715/2815 01011KT 9999 VCSH SCT025 BKN035 BKN050 QNH2990INS
Forecast period: 1500 UTC 27 April 2017 to 1500 UTC 28 April 2017
Forecast type: FROM: standard forecast or significant change
Winds: from the N (10 degrees) at 13 MPH (11 knots; 5.7 m/s)
Visibility: 6 or more miles (10+ km)
Ceiling: 3500 feet AGL
Clouds: scattered clouds at 2500 feet AGL
broken clouds at 3500 feet AGL
broken clouds at 5000 feet AGL
Weather: VCSH  (showers in vicinity)
Text: TEMPO 2715/2721 35012G22KT 9000 -SHRA BR T17/2715Z T23/2805Z
Forecast period: 1500 to 2100 UTC 27 April 2017
Forecast type: TEMPORARY: The following changes expected for less than half the time period
Winds: from the N (350 degrees) at 14 MPH (12 knots; 6.2 m/s)
gusting to 25 MPH (22 knots; 11.4 m/s)
Visibility: 6 miles (9 km)
Weather: -SHRA BR  (light rain showers, mist)

Forecast for: ROAH (NAHA (CIV/JASDF), JP)
Text: TAF ROAH 271705Z 2718/2900 36015KT 9999 FEW025 SCT035
Forecast period: 1800 UTC 27 April 2017 to 0000 UTC 29 April 2017
Forecast type: FROM: standard forecast or significant change
Winds: from the N (360 degrees) at 17 MPH (15 knots; 7.8 m/s)
Visibility: 6 or more miles (10+ km)
Clouds: few clouds at 2500 feet AGL
scattered clouds at 3500 feet AGL
Weather: no significant weather forecast for this period